Time;durP1;ratioP1;P1;durP2;ratioP2;P2;SDS_P1;SDS_P2;PMS_P1;PMS_P2;Temp;Humidity;BMP_temperature;BMP_pressure;BME280_temperature;BME280_humidity;BME280_pressure;Samples;Min_cycle;Max_cycle;Signal;HPM_P1;HPM_P2
2021/11/19 00:01:53;;;;;;;21.77;10.32;;;9.30;99.90;;;7.76;100.00;102516.13;2569261;30;137267;-39
2021/11/19 00:04:23;;;;;;;17.30;8.75;;;9.30;99.90;;;7.76;100.00;102518.84;2569707;30;137331;-38
2021/11/19 00:06:52;;;;;;;27.90;9.98;;;9.30;99.90;;;7.78;100.00;102522.25;2571956;30;137466;-39
2021/11/19 00:09:20;;;;;;;21.05;9.50;;;9.30;99.90;;;7.81;100.00;102527.38;2568521;30;138156;-38
2021/11/19 00:11:50;;;;;;;21.08;9.77;;;9.30;99.90;;;7.89;100.00;102529.34;2568136;30;137481;-38
2021/11/19 00:14:20;;;;;;;20.70;9.85;;;9.40;99.90;;;7.86;100.00;102519.63;2569744;30;137311;-37
2021/11/19 00:16:57;;;;;;;23.27;10.23;;;9.40;99.90;;;7.84;100.00;102521.66;2568987;30;137384;-38
2021/11/19 00:19:26;;;;;;;19.30;9.43;;;9.40;99.90;;;7.87;100.00;102526.78;2570046;30;137345;-38
2021/11/19 00:21:56;;;;;;;23.05;9.55;;;9.40;99.90;;;7.92;100.00;102519.00;2568965;30;137895;-38
2021/11/19 00:24:26;;;;;;;22.05;9.85;;;9.40;99.90;;;7.94;100.00;102520.72;2570407;30;137340;-38
2021/11/19 00:26:54;;;;;;;22.52;9.90;;;9.50;99.90;;;7.87;100.00;102520.50;2569560;30;137515;-38
2021/11/19 00:29:22;;;;;;;18.23;9.38;;;9.40;99.90;;;7.87;100.00;102510.47;2568722;30;138469;-38
2021/11/19 00:31:52;;;;;;;27.63;10.35;;;9.40;99.90;;;7.94;100.00;102505.28;2567632;30;137021;-38
2021/11/19 00:34:20;;;;;;;23.60;9.48;;;9.40;99.90;;;7.92;100.00;102499.16;2567660;30;139981;-37
2021/11/19 00:36:49;;;;;;;21.77;9.82;;;9.50;99.90;;;7.92;100.00;102501.88;2568318;30;137705;-38
2021/11/19 00:39:19;;;;;;;20.63;9.98;;;9.40;99.90;;;7.94;100.00;102494.41;2569685;30;138588;-38
2021/11/19 00:41:48;;;;;;;25.95;10.32;;;9.50;99.90;;;7.94;100.00;102493.53;2568460;30;136781;-38
2021/11/19 00:44:17;;;;;;;23.92;10.30;;;9.50;99.90;;;7.92;100.00;102494.53;2569124;30;138071;-38
2021/11/19 00:46:49;;;;;;;20.42;9.68;;;9.50;99.90;;;7.94;100.00;102498.97;2571093;30;139268;-38
2021/11/19 00:49:21;;;;;;;23.35;10.60;;;9.50;99.90;;;7.97;100.00;102495.97;2570057;30;137933;-38
2021/11/19 00:51:52;;;;;;;23.58;10.35;;;9.50;99.90;;;7.96;100.00;102496.97;2569831;30;136943;-39
2021/11/19 00:54:22;;;;;;;24.17;10.02;;;9.50;99.90;;;7.98;100.00;102508.56;2570135;30;139664;-38
2021/11/19 00:56:57;;;;;;;21.73;9.88;;;9.50;99.90;;;7.95;100.00;102509.69;2568777;30;139844;-38
2021/11/19 00:59:27;;;;;;;27.23;10.73;;;9.50;99.90;;;7.95;100.00;102511.56;2569657;30;136767;-38
2021/11/19 01:02:12;;;;;;;24.05;10.32;;;9.40;99.90;;;7.95;100.00;102508.84;2569284;30;139953;-38
2021/11/19 01:04:42;;;;;;;25.90;10.45;;;9.50;99.90;;;7.93;100.00;102519.88;2569001;30;140129;-38
2021/11/19 01:07:13;;;;;;;21.20;10.77;;;9.50;99.90;;;7.94;100.00;102515.28;2567774;30;138308;-38
2021/11/19 01:09:50;;;;;;;23.73;10.48;;;9.50;99.90;;;7.94;100.00;102524.31;2567850;30;138216;-38
2021/11/19 01:12:23;;;;;;;26.10;10.73;;;9.50;99.90;;;7.98;100.00;102524.88;2565621;30;137245;-39
2021/11/19 01:15:02;;;;;;;21.95;11.27;;;9.50;99.90;;;8.01;100.00;102517.22;2566581;30;139681;-38
2021/11/19 01:17:43;;;;;;;20.38;9.95;;;9.50;99.90;;;7.97;100.00;102536.75;2572896;30;137620;-38
2021/11/19 01:20:40;;;;;;;21.67;10.98;;;9.50;99.90;;;7.94;100.00;102528.88;2569873;30;140624;-38
2021/11/19 01:23:11;;;;;;;24.35;11.50;;;9.50;99.90;;;7.94;100.00;102526.16;2567783;30;139244;-38
2021/11/19 01:25:46;;;;;;;21.35;10.57;;;9.50;99.90;;;7.95;100.00;102534.16;2570869;30;140977;-38
2021/11/19 01:28:15;;;;;;;23.27;11.40;;;9.50;99.90;;;7.97;100.00;102520.44;2569169;30;137486;-38
2021/11/19 01:31:05;;;;;;;25.65;11.65;;;9.50;99.90;;;7.95;100.00;102533.28;2565948;30;138980;-38
2021/11/19 01:33:37;;;;;;;21.10;10.43;;;9.50;99.90;;;7.95;100.00;102522.44;2567690;30;137519;-38
2021/11/19 01:36:23;;;;;;;19.85;10.75;;;9.50;99.90;;;7.91;100.00;102527.34;2568157;30;138718;-38
2021/11/19 01:39:10;;;;;;;23.27;11.70;;;9.50;99.90;;;7.88;100.00;102533.91;2568805;30;139461;-39
2021/11/19 01:42:08;;;;;;;20.92;11.15;;;9.40;99.90;;;7.85;100.00;102528.78;2568841;30;139617;-38
2021/11/19 01:45:35;;;;;;;26.40;11.30;;;9.40;99.90;;;7.85;100.00;102533.38;2570935;30;139036;-38
2021/11/19 01:48:07;;;;;;;22.17;11.23;;;9.40;99.90;;;7.86;100.00;102529.66;2566605;30;138936;-38
2021/11/19 01:50:39;;;;;;;26.70;12.35;;;9.40;99.90;;;7.89;100.00;102532.06;2567501;30;139954;-38
2021/11/19 01:53:44;;;;;;;24.95;12.48;;;9.40;99.90;;;7.87;100.00;102532.22;2568722;30;140389;-39
2021/11/19 01:56:24;;;;;;;25.88;12.70;;;9.40;99.90;;;7.90;100.00;102531.91;2568733;30;139823;-38
2021/11/19 01:59:01;;;;;;;24.65;12.75;;;9.40;99.90;;;7.93;100.00;102536.19;2568440;30;140207;-38
2021/11/19 02:01:48;;;;;;;27.77;13.85;;;9.50;99.90;;;7.87;100.00;102537.66;2568123;30;139500;-39
2021/11/19 02:04:27;;;;;;;25.70;12.85;;;9.40;99.90;;;7.91;100.00;102532.78;2568931;30;139735;-38
2021/11/19 02:07:31;;;;;;;30.20;13.82;;;9.40;99.90;;;7.92;100.00;102532.59;2569357;30;139878;-38
2021/11/19 02:10:37;;;;;;;29.00;13.60;;;9.50;99.90;;;7.88;100.00;102528.47;2567037;30;140034;-38
2021/11/19 02:13:51;;;;;;;25.55;12.73;;;9.40;99.90;;;7.94;100.00;102531.59;2568617;30;139074;-38
2021/11/19 02:16:29;;;;;;;28.27;14.05;;;9.50;99.90;;;7.95;100.00;102530.56;2570038;30;138974;-38
2021/11/19 02:19:19;;;;;;;28.88;14.02;;;9.50;99.90;;;7.96;100.00;102535.88;2569859;30;138994;-38
2021/11/19 02:21:49;;;;;;;26.85;13.68;;;9.50;99.90;;;7.92;100.00;102538.03;2567104;30;140109;-38
2021/11/19 02:24:27;;;;;;;24.50;13.45;;;9.50;99.90;;;7.89;100.00;102534.78;2568258;30;139033;-38
2021/11/19 02:27:12;;;;;;;28.77;14.15;;;9.40;99.90;;;7.88;100.00;102536.63;2567883;30;140588;-38
2021/11/19 02:29:46;;;;;;;24.52;13.23;;;9.40;99.90;;;7.87;100.00;102537.66;2568735;30;140205;-38
2021/11/19 02:32:23;;;;;;;25.27;13.10;;;9.40;99.90;;;7.90;100.00;102540.06;2567327;30;140021;-38
2021/11/19 02:34:58;;;;;;;29.17;13.90;;;9.40;99.90;;;7.94;100.00;102534.31;2566312;30;138407;-38
2021/11/19 02:37:42;;;;;;;29.20;14.25;;;9.50;99.90;;;7.90;100.00;102534.63;2568484;30;139829;-38
2021/11/19 02:40:18;;;;;;;29.92;14.70;;;9.50;99.90;;;7.93;100.00;102530.75;2567483;30;137742;-38
2021/11/19 02:42:53;;;;;;;32.78;14.40;;;9.50;99.90;;;7.91;100.00;102527.34;2568973;30;138765;-38
2021/11/19 02:45:40;;;;;;;26.08;13.32;;;9.50;99.90;;;7.90;100.00;102529.19;2566957;30;139668;-38
2021/11/19 02:48:14;;;;;;;29.30;13.82;;;9.50;99.90;;;7.95;100.00;102519.72;2569392;30;139387;-38
2021/11/19 02:50:45;;;;;;;31.08;13.57;;;9.50;99.90;;;7.93;100.00;102514.44;2568637;30;137425;-38
2021/11/19 02:53:14;;;;;;;27.85;14.32;;;9.50;99.90;;;7.94;100.00;102513.44;2568690;30;140155;-38
2021/11/19 02:55:46;;;;;;;27.85;13.63;;;9.50;99.90;;;7.94;100.00;102526.16;2567670;30;139132;-38
2021/11/19 02:58:28;;;;;;;25.00;13.73;;;9.50;99.90;;;7.95;100.00;102514.28;2567285;30;138561;-38
2021/11/19 03:01:04;;;;;;;26.20;13.85;;;9.50;99.90;;;7.96;100.00;102507.84;2567538;30;139006;-38
2021/11/19 03:03:34;;;;;;;26.17;13.63;;;9.50;99.90;;;7.98;100.00;102512.13;2570085;30;138152;-38
2021/11/19 03:06:03;;;;;;;27.70;13.27;;;9.50;99.90;;;7.95;100.00;102507.00;2567959;30;139799;-38
2021/11/19 03:08:33;;;;;;;28.33;14.02;;;9.50;99.90;;;7.94;100.00;102518.88;2567303;30;141134;-39
2021/11/19 03:11:01;;;;;;;23.90;13.10;;;9.50;99.90;;;7.95;100.00;102508.84;2567321;30;138716;-38
2021/11/19 03:13:33;;;;;;;24.85;13.75;;;9.50;99.90;;;7.95;100.00;102503.41;2569862;30;138742;-38
2021/11/19 03:16:00;;;;;;;26.48;13.13;;;9.50;99.90;;;7.95;100.00;102509.69;2570453;30;138354;-38
2021/11/19 03:18:29;;;;;;;27.38;13.75;;;9.50;99.90;;;7.95;100.00;102506.13;2566910;30;140699;-38
2021/11/19 03:21:01;;;;;;;23.23;13.05;;;9.50;99.90;;;7.95;100.00;102511.56;2568911;30;139429;-38
2021/11/19 03:23:34;;;;;;;28.23;14.15;;;9.50;99.90;;;7.97;100.00;102499.53;2568280;30;139118;-38
2021/11/19 03:32:50;;;;;;;26.10;12.77;;;9.50;99.90;;;7.95;100.00;102498.84;2570143;30;140448;-39
2021/11/19 03:35:22;;;;;;;27.92;13.95;;;9.50;99.90;;;7.96;100.00;102497.81;2565395;30;139877;-40
2021/11/19 03:37:53;;;;;;;28.23;14.35;;;9.50;99.90;;;7.94;100.00;102497.13;2567276;30;138745;-40
2021/11/19 03:40:30;;;;;;;27.52;13.50;;;9.50;99.90;;;7.95;100.00;102496.13;2566537;30;139374;-40
2021/11/19 03:43:03;;;;;;;23.15;12.77;;;9.50;99.90;;;7.92;100.00;102491.81;2566622;30;137630;-39
2021/11/19 03:45:40;;;;;;;25.73;14.07;;;9.50;99.90;;;7.98;100.00;102486.81;2566829;30;140633;-40
2021/11/19 03:48:11;;;;;;;30.40;13.55;;;9.50;99.90;;;8.06;100.00;102497.75;2567183;30;138370;-39
2021/11/19 03:50:44;;;;;;;26.65;13.23;;;9.50;99.90;;;7.99;100.00;102497.50;2568001;30;139237;-40
2021/11/19 03:53:14;;;;;;;27.63;14.00;;;9.50;99.90;;;8.03;100.00;102501.63;2568721;30;138984;-39
2021/11/19 03:55:46;;;;;;;30.98;14.90;;;9.50;99.90;;;8.01;100.00;102500.94;2569022;30;139189;-39
2021/11/19 03:58:25;;;;;;;29.73;13.75;;;9.50;99.90;;;8.02;100.00;102507.22;2566729;30;138636;-39
2021/11/19 04:01:01;;;;;;;28.65;14.10;;;9.50;99.90;;;8.00;100.00;102503.81;2568226;30;138569;-39
2021/11/19 04:03:30;;;;;;;25.98;14.32;;;9.60;99.90;;;8.00;100.00;102501.09;2568016;30;138264;-40
2021/11/19 04:05:59;;;;;;;28.10;14.25;;;9.50;99.90;;;8.01;100.00;102505.53;2568351;30;138258;-39
2021/11/19 04:08:28;;;;;;;26.77;13.55;;;9.50;99.90;;;8.02;100.00;102513.50;2568068;30;139847;-39
2021/11/19 04:11:02;;;;;;;26.55;13.82;;;9.60;99.90;;;8.10;100.00;102515.47;2568343;30;139785;-39
2021/11/19 04:13:30;;;;;;;29.40;14.80;;;9.60;99.90;;;8.11;100.00;102514.44;2567536;30;139686;-39
2021/11/19 04:16:07;;;;;;;25.65;13.75;;;9.60;99.90;;;8.07;100.00;102513.06;2566832;30;138120;-40
2021/11/19 04:18:38;;;;;;;31.60;14.55;;;9.60;99.90;;;8.06;100.00;102511.34;2568823;30;139015;-40
2021/11/19 04:21:08;;;;;;;28.98;13.75;;;9.60;99.90;;;8.12;100.00;102510.72;2568622;30;139961;-39
2021/11/19 04:23:37;;;;;;;28.40;15.02;;;9.60;99.90;;;8.08;100.00;102501.16;2568052;30;138393;-39
2021/11/19 04:26:09;;;;;;;27.42;13.48;;;9.60;99.90;;;8.10;100.00;102498.31;2567460;30;139800;-39
2021/11/19 04:28:37;;;;;;;29.83;13.82;;;9.60;99.90;;;8.12;100.00;102505.28;2566413;30;138567;-39
2021/11/19 04:31:24;;;;;;;27.08;13.70;;;9.60;99.90;;;8.07;100.00;102504.91;2568259;30;140403;-39
2021/11/19 04:33:52;;;;;;;25.98;14.10;;;9.60;99.90;;;8.05;100.00;102501.47;2565776;30;136696;-40
2021/11/19 04:36:21;;;;;;;29.08;14.15;;;9.60;99.90;;;8.16;100.00;102509.41;2566207;30;139804;-39
2021/11/19 04:38:49;;;;;;;26.05;13.68;;;9.70;99.90;;;8.10;100.00;102506.47;2568011;30;139647;-40
2021/11/19 04:41:20;;;;;;;24.48;13.43;;;9.60;99.90;;;8.11;100.00;102505.47;2568550;30;139311;-39
2021/11/19 04:43:48;;;;;;;26.50;12.77;;;9.60;99.90;;;8.10;100.00;102509.19;2567841;30;137647;-39
2021/11/19 04:46:16;;;;;;;;;;;9.60;99.90;;;8.09;100.00;102508.31;2567779;30;139721;-39
2021/11/19 04:48:44;;;;;;;27.70;13.57;;;9.60;99.90;;;8.11;100.00;102506.28;2568494;30;138527;-39
2021/11/19 04:51:19;;;;;;;28.33;13.43;;;9.60;99.90;;;8.12;100.00;102513.44;2567771;30;139895;-39
2021/11/19 04:53:48;;;;;;;28.60;14.20;;;9.60;99.90;;;8.12;100.00;102512.59;2567430;30;137543;-39
2021/11/19 04:56:17;;;;;;;26.08;14.15;;;9.70;99.90;;;8.15;100.00;102512.28;2565857;30;139913;-39
2021/11/19 04:58:48;;;;;;;28.63;14.30;;;9.70;99.90;;;8.12;100.00;102507.16;2566379;30;138700;-39
2021/11/19 05:01:25;;;;;;;28.10;14.27;;;9.70;99.90;;;8.10;100.00;102512.75;2568940;30;137361;-39
2021/11/19 05:04:19;;;;;;;26.13;13.50;;;9.60;99.90;;;8.16;100.00;102501.25;2568347;30;137120;-39
2021/11/19 05:06:48;;;;;;;25.15;13.88;;;9.70;99.90;;;8.17;100.00;102500.22;2567996;30;139793;-39
2021/11/19 05:09:17;;;;;;;27.67;14.23;;;9.70;99.90;;;8.17;100.00;102502.94;2568121;30;139036;-39
2021/11/19 05:11:52;;;;;;;;;;;9.70;99.90;;;8.18;100.00;102504.66;2566934;30;139798;-39
2021/11/19 05:14:22;;;;;;;27.20;14.07;;;9.70;99.90;;;8.24;100.00;102505.06;2567441;30;138838;-39
2021/11/19 05:16:51;;;;;;;27.52;15.40;;;9.70;99.90;;;8.23;100.00;102503.38;2567692;30;139641;-39
2021/11/19 05:19:20;;;;;;;28.10;15.02;;;9.70;99.90;;;8.23;100.00;102501.47;2567750;30;137701;-39
2021/11/19 05:21:48;;;;;;;24.75;14.38;;;9.80;99.90;;;8.24;100.00;102505.06;2565345;30;138868;-40
2021/11/19 05:24:17;;;;;;;31.45;14.27;;;9.80;99.90;;;8.24;100.00;102497.75;2566558;30;139723;-40
2021/11/19 05:26:48;;;;;;;27.75;13.88;;;9.80;99.90;;;8.28;100.00;102511.91;2567546;30;139751;-39
2021/11/19 05:29:19;;;;;;;28.00;14.60;;;9.80;99.90;;;8.28;100.00;102506.47;2567377;30;139872;-39
2021/11/19 05:31:50;;;;;;;25.35;14.90;;;9.80;99.90;;;8.26;100.00;102503.03;2565866;30;138760;-39
2021/11/19 05:34:20;;;;;;;27.85;14.10;;;9.80;99.90;;;8.22;100.00;102499.78;2566995;30;137558;-40
2021/11/19 05:36:49;;;;;;;26.83;14.98;;;9.80;99.90;;;8.27;100.00;102504.75;2566775;30;138316;-39
2021/11/19 05:39:17;;;;;;;28.88;15.07;;;9.80;99.90;;;8.25;100.00;102499.47;2567222;30;137752;-39
2021/11/19 05:41:47;;;;;;;29.70;15.35;;;9.80;99.90;;;8.23;100.00;102508.81;2567656;30;138245;-39
2021/11/19 05:44:15;;;;;;;28.05;14.98;;;9.80;99.90;;;8.27;100.00;102504.75;2566822;30;139497;-39
2021/11/19 05:47:08;;;;;;;29.15;14.98;;;9.80;99.90;;;8.26;100.00;102500.31;2566849;30;137517;-39
2021/11/19 05:49:39;;;;;;;31.80;15.52;;;9.80;99.90;;;8.27;100.00;102504.75;2567896;30;138287;-39
2021/11/19 05:52:11;;;;;;;31.52;15.60;;;9.80;99.90;;;8.28;100.00;102511.91;2567744;30;140655;-39
2021/11/19 05:54:40;;;;;;;30.05;15.10;;;9.80;99.90;;;8.28;100.00;102506.47;2566701;30;137786;-40
2021/11/19 05:57:11;;;;;;;27.55;15.82;;;9.80;99.90;;;8.28;100.00;102511.91;2566948;30;139340;-39
2021/11/19 05:59:40;;;;;;;29.88;15.98;;;9.80;99.90;;;8.31;100.00;102517.84;2567979;30;137065;-39
2021/11/19 06:02:15;;;;;;;30.17;15.98;;;9.80;99.90;;;8.31;100.00;102517.84;2567282;30;137179;-39
2021/11/19 06:05:05;;;;;;;28.45;15.40;;;9.80;99.90;;;8.33;100.00;102515.00;2565681;30;137140;-39
2021/11/19 06:07:40;;;;;;;31.40;16.48;;;9.80;99.90;;;8.35;100.00;102513.84;2563931;30;140513;-39
2021/11/19 06:10:16;;;;;;;32.83;15.35;;;9.90;99.90;;;8.35;100.00;102511.13;2567892;30;137491;-39
2021/11/19 06:12:57;;;;;;;27.38;15.35;;;9.90;99.90;;;8.39;100.00;102513.53;2567597;30;138433;-40
2021/11/19 06:15:34;;;;;;;31.20;15.27;;;9.90;99.90;;;8.38;100.00;102514.53;2568027;30;138880;-39
2021/11/19 06:18:18;;;;;;;29.83;15.35;;;9.90;99.90;;;8.37;100.00;102512.84;2568779;30;138943;-39
2021/11/19 06:20:55;;;;;;;32.15;16.00;;;9.90;99.90;;;8.43;100.00;102512.19;2568271;30;137651;-39
2021/11/19 06:23:34;;;;;;;29.23;15.75;;;9.90;99.90;;;8.47;100.00;102514.44;2568711;30;139222;-39
2021/11/19 06:26:06;;;;;;;29.77;15.60;;;9.90;99.90;;;8.45;100.00;102515.63;2567961;30;139650;-39
2021/11/19 06:28:47;;;;;;;29.20;14.60;;;9.90;99.90;;;8.42;100.00;102519.50;2565755;30;140348;-39
2021/11/19 06:31:20;;;;;;;28.93;15.23;;;9.90;99.90;;;8.39;100.00;102522.53;2567789;30;137372;-39
2021/11/19 06:33:49;;;;;;;30.23;15.13;;;9.90;99.90;;;8.43;100.00;102526.63;2565254;30;138323;-40
2021/11/19 06:36:17;;;;;;;27.13;14.80;;;9.90;99.90;;;8.44;100.00;102516.63;2566420;30;137815;-39
2021/11/19 06:38:48;;;;;;;28.63;16.45;;;9.90;99.90;;;8.46;100.00;102520.88;2565857;30;138845;-39
2021/11/19 06:41:19;;;;;;;29.40;15.70;;;10.00;99.90;;;8.46;100.00;102523.59;2567038;30;139076;-39
2021/11/19 06:43:50;;;;;;;29.92;15.20;;;10.00;99.90;;;8.47;100.00;102527.19;2567227;30;137592;-39
2021/11/19 06:46:44;;;;;;;28.67;14.98;;;10.00;99.90;;;8.52;100.00;102534.94;2568035;30;136784;-39
2021/11/19 06:49:44;;;;;;;25.25;13.38;;;10.00;99.90;;;8.46;100.00;102536.38;2567437;30;137279;-39
2021/11/19 06:52:47;;;;;;;26.15;14.93;;;10.00;99.90;;;8.48;100.00;102546.06;2565000;30;136970;-39
2021/11/19 06:55:39;;;;;;;27.50;15.25;;;10.00;99.90;;;8.48;100.00;102539.78;2567183;30;137645;-39
2021/11/19 06:58:27;;;;;;;;;;;10.00;99.90;;;8.51;100.00;102546.81;2567445;30;136782;-39
2021/11/19 07:00:57;;;;;;;29.85;14.75;;;10.00;99.90;;;8.52;100.00;102546.66;2567022;30;140061;-39
2021/11/19 07:03:25;;;;;;;31.05;15.15;;;10.00;99.90;;;8.53;100.00;102547.50;2565906;30;139305;-39
2021/11/19 07:05:53;;;;;;;;;;;10.10;99.90;;;8.52;100.00;102553.97;2565069;30;140452;-40
2021/11/19 07:08:21;;;;;;;24.95;13.55;;;10.00;99.90;;;8.49;100.00;102553.28;2567955;30;138725;-39
2021/11/19 07:10:56;;;;;;;29.42;14.77;;;10.00;99.90;;;8.53;100.00;102548.34;2568282;30;140831;-39
2021/11/19 07:13:24;;;;;;;28.67;14.43;;;10.00;99.90;;;8.55;100.00;102556.38;2566644;30;139696;-39
2021/11/19 07:15:54;;;;;;;25.98;14.23;;;10.00;99.90;;;8.54;100.00;102551.94;2568282;30;139697;-39
2021/11/19 07:18:22;;;;;;;29.80;15.23;;;10.00;99.90;;;8.51;100.00;102547.66;2567209;30;139208;-39
2021/11/19 07:20:52;;;;;;;27.95;13.98;;;10.00;99.90;;;8.55;100.00;102556.38;2567565;30;139787;-39
2021/11/19 07:23:21;;;;;;;28.95;14.63;;;10.10;99.90;;;8.56;100.00;102556.19;2566854;30;139330;-39
2021/11/19 07:25:51;;;;;;;27.25;14.57;;;10.10;99.90;;;8.56;100.00;102555.34;2567125;30;140610;-39
2021/11/19 07:28:19;;;;;;;29.17;15.07;;;10.10;99.90;;;8.55;100.00;102556.38;2567518;30;137560;-39
2021/11/19 07:30:56;;;;;;;24.83;13.63;;;10.10;99.90;;;8.58;100.00;102561.50;2566667;30;139039;-39
2021/11/19 07:33:48;;;;;;;28.92;14.52;;;10.10;99.90;;;8.59;100.00;102564.03;2568580;30;137093;-39
2021/11/19 07:36:34;;;;;;;29.10;14.07;;;10.10;99.90;;;8.57;100.00;102566.06;2566618;30;137474;-39
2021/11/19 07:39:28;;;;;;;26.88;13.93;;;10.10;99.90;;;8.57;100.00;102568.78;2567787;30;136814;-39
2021/11/19 07:42:26;;;;;;;26.88;14.43;;;10.10;99.90;;;8.65;100.00;102568.00;2568920;30;138240;-39
2021/11/19 07:45:05;;;;;;;27.58;14.88;;;10.10;99.90;;;8.60;100.00;102562.19;2568301;30;137525;-39
2021/11/19 07:47:41;;;;;;;26.58;14.82;;;10.10;99.90;;;8.63;100.00;102570.03;2568314;30;138160;-39
2021/11/19 07:50:17;;;;;;;29.15;14.93;;;10.10;99.90;;;8.65;100.00;102573.44;2566195;30;140372;-39
2021/11/19 07:52:45;;;;;;;27.92;14.30;;;10.10;99.90;;;8.63;100.00;102570.03;2567977;30;138929;-40
2021/11/19 07:55:12;;;;;;;25.27;13.63;;;10.10;99.90;;;8.63;100.00;102572.75;2567701;30;139363;-39
2021/11/19 07:57:40;;;;;;;26.60;14.30;;;10.10;99.90;;;8.64;100.00;102571.75;2568403;30;139059;-39
2021/11/19 08:00:17;;;;;;;26.58;14.63;;;10.20;99.90;;;8.65;100.00;102581.63;2566380;30;138922;-39
2021/11/19 08:02:48;;;;;;;31.50;15.18;;;10.20;99.90;;;8.70;100.00;102576.56;2566583;30;139558;-39
2021/11/19 08:05:19;;;;;;;29.27;14.60;;;10.20;99.90;;;8.67;100.00;102578.75;2565701;30;139444;-40
2021/11/19 08:08:16;;;;;;;25.23;13.60;;;10.20;99.90;;;8.69;100.00;102585.72;2567410;30;137523;-39
2021/11/19 08:11:14;;;;;;;26.83;13.52;;;10.20;99.90;;;8.66;100.00;102580.59;2567813;30;136978;-39
2021/11/19 08:13:43;;;;;;;25.38;13.48;;;10.10;99.90;;;8.64;100.00;102582.63;2566227;30;138436;-39
2021/11/19 08:16:12;;;;;;;28.20;14.70;;;10.20;99.90;;;8.66;100.00;102582.47;2565319;30;139434;-39
2021/11/19 08:19:30;;;;;;;23.90;13.85;;;10.20;99.90;;;8.75;100.00;102582.41;2568107;30;137134;-39
2021/11/19 08:22:01;;;;;;;26.00;14.32;;;10.20;99.90;;;8.77;100.00;102583.09;2567914;30;137553;-39
2021/11/19 08:24:30;;;;;;;26.75;14.27;;;10.30;99.90;;;8.78;100.00;102575.78;2568240;30;138230;-39
2021/11/19 08:27:08;;;;;;;26.80;14.13;;;10.30;99.90;;;8.82;100.00;102585.31;2568635;30;137770;-40
2021/11/19 08:29:41;;;;;;;28.60;14.03;;;10.30;99.90;;;8.83;100.00;102576.16;2568351;30;137371;-39
2021/11/19 08:32:11;;;;;;;24.25;13.57;;;10.30;99.90;;;8.83;100.00;102580.75;2568425;30;137477;-39
2021/11/19 08:34:40;;;;;;;24.33;13.45;;;10.30;99.90;;;8.83;100.00;102575.31;2567756;30;139076;-39
2021/11/19 08:37:09;;;;;;;23.02;13.32;;;10.30;99.90;;;8.87;100.00;102582.13;2569081;30;137181;-39
2021/11/19 08:39:37;;;;;;;29.42;14.13;;;10.40;99.90;;;8.86;100.00;102583.16;2567930;30;138252;-39
2021/11/19 08:42:08;;;;;;;29.33;14.30;;;10.40;99.90;;;8.82;100.00;102579.88;2567833;30;137639;-39
2021/11/19 08:44:44;;;;;;;29.60;14.00;;;10.40;99.90;;;8.86;100.00;102575.00;2567990;30;138224;-40
2021/11/19 08:47:24;;;;;;;26.23;14.13;;;10.40;99.90;;;8.91;100.00;102584.41;2568598;30;137479;-40
2021/11/19 08:49:52;;;;;;;28.08;14.05;;;10.40;99.90;;;8.92;100.00;102586.09;2568393;30;139015;-39
2021/11/19 08:52:22;;;;;;;25.08;13.95;;;10.40;99.90;;;8.93;100.00;102584.22;2567098;30;138716;-39
2021/11/19 08:54:50;;;;;;;27.85;14.32;;;10.40;99.90;;;8.96;100.00;102574.91;2568706;30;138521;-39
2021/11/19 08:57:23;;;;;;;25.23;14.60;;;10.40;99.90;;;8.94;100.00;102577.75;2567120;30;137627;-39
2021/11/19 08:59:53;;;;;;;23.48;13.05;;;10.40;99.90;;;8.95;100.00;102593.06;2566979;30;138399;-39
2021/11/19 09:02:24;;;;;;;29.00;13.25;;;10.40;99.90;;;8.95;100.00;102587.63;2568659;30;137841;-39
2021/11/19 09:05:05;;;;;;;26.77;13.82;;;10.40;99.90;;;8.98;100.00;102587.31;2567732;30;137362;-39
2021/11/19 09:07:35;;;;;;;25.00;13.63;;;10.40;99.90;;;9.03;100.00;102579.56;2568548;30;137530;-39
2021/11/19 09:10:13;;;;;;;26.95;15.02;;;10.50;99.90;;;9.00;100.00;102574.41;2568557;30;137615;-39
2021/11/19 09:12:42;;;;;;;26.25;13.68;;;10.50;99.90;;;9.03;100.00;102582.28;2568603;30;136963;-39
2021/11/19 09:15:15;;;;;;;26.63;13.50;;;10.50;99.90;;;9.07;100.00;102583.66;2568144;30;138571;-39
2021/11/19 09:18:12;;;;;;;24.70;13.70;;;10.50;99.90;;;9.07;100.00;102578.22;2568289;30;137393;-39
2021/11/19 09:21:22;;;;;;;27.15;14.23;;;10.50;99.90;;;9.12;100.00;102580.44;2568761;30;137496;-39
2021/11/19 09:24:21;;;;;;;30.45;14.40;;;10.60;99.90;;;9.17;100.00;102578.13;2569518;30;137036;-39
2021/11/19 09:26:57;;;;;;;24.27;13.43;;;10.60;99.90;;;9.19;100.00;102572.50;2567356;30;137754;-39
2021/11/19 09:29:34;;;;;;;27.92;15.13;;;10.60;99.90;;;9.27;100.00;102577.97;2566996;30;137307;-39
2021/11/19 09:32:06;;;;;;;25.83;14.00;;;10.70;99.90;;;9.26;100.00;102573.53;2577934;30;138492;-37
2021/11/19 09:34:39;;;;;;;23.65;13.75;;;10.70;99.90;;;9.32;100.00;102586.53;2567955;30;138537;-39
2021/11/19 09:37:11;;;;;;;25.70;13.77;;;10.80;99.90;;;9.37;100.00;102590.66;2566730;30;138821;-38
2021/11/19 09:39:42;;;;;;;28.25;14.30;;;10.80;99.90;;;9.36;100.00;102595.22;2569770;30;137302;-38
2021/11/19 09:42:37;;;;;;;31.73;14.90;;;10.80;99.90;;;9.41;100.00;102592.03;2571031;30;139148;-38
2021/11/19 09:45:49;;;;;;;27.25;14.90;;;10.90;99.90;;;9.48;100.00;102595.81;2568430;30;138426;-38
2021/11/19 09:48:50;;;;;;;28.02;14.98;;;10.90;99.90;;;9.48;100.00;102599.41;2570070;30;138952;-38
2021/11/19 09:51:42;;;;;;;27.63;13.93;;;10.90;99.90;;;9.51;100.00;102595.47;2569352;30;137305;-38
2021/11/19 09:54:59;;;;;;;27.83;14.30;;;10.90;99.90;;;9.52;100.00;102596.34;2568703;30;137337;-38
2021/11/19 09:58:03;;;;;;;22.85;13.13;;;10.90;99.90;;;9.56;100.00;102593.16;2568743;30;137437;-38
2021/11/19 10:01:26;;;;;;;27.42;14.48;;;11.00;99.90;;;9.63;100.00;102599.66;2569749;30;138315;-38
2021/11/19 10:04:25;;;;;;;25.98;13.65;;;11.00;99.90;;;9.61;100.00;102595.38;2569370;30;137580;-38
2021/11/19 10:07:04;;;;;;;25.88;14.07;;;11.10;99.90;;;9.61;100.00;102601.69;2569200;30;137177;-38
2021/11/19 10:10:25;;;;;;;24.05;13.45;;;11.10;99.90;;;9.61;100.00;102603.53;2566092;30;138889;-38
2021/11/19 10:13:09;;;;;;;26.25;14.48;;;11.10;99.90;;;9.61;100.00;102607.13;2569483;30;138507;-38
2021/11/19 10:16:29;;;;;;;24.33;13.60;;;11.10;99.90;;;9.59;100.00;102609.16;2568182;30;138237;-38
2021/11/19 10:19:23;;;;;;;24.33;13.40;;;11.00;99.90;;;9.63;100.00;102607.81;2569089;30;138319;-38
2021/11/19 10:22:12;;;;;;;24.10;13.55;;;11.10;99.90;;;9.62;100.00;102597.94;2568347;30;137719;-38
2021/11/19 10:25:11;;;;;;;26.00;13.67;;;11.10;99.90;;;9.64;100.00;102601.34;2567056;30;138118;-38
2021/11/19 10:27:53;;;;;;;24.20;12.68;;;11.10;99.90;;;9.66;100.00;102603.06;2569716;30;137577;-38
2021/11/19 10:30:44;;;;;;;25.70;13.90;;;11.10;99.90;;;9.67;100.00;102602.03;2569955;30;138650;-38
2021/11/19 10:33:21;;;;;;;26.13;13.98;;;11.10;99.90;;;9.65;100.00;102602.19;2568675;30;136996;-38
2021/11/19 10:36:08;;;;;;;25.40;13.27;;;11.10;99.90;;;9.67;100.00;102600.16;2567797;30;138449;-38
2021/11/19 10:39:06;;;;;;;25.70;14.45;;;11.10;99.90;;;9.64;100.00;102604.09;2568866;30;136794;-38
2021/11/19 10:42:03;;;;;;;;;;;11.10;99.90;;;9.65;100.00;102604.91;2569234;30;137602;-38
2021/11/19 10:45:04;;;;;;;24.20;12.85;;;11.10;99.90;;;9.65;100.00;102607.66;2567045;30;136868;-38
2021/11/19 10:48:06;;;;;;;25.88;13.52;;;11.10;99.90;;;9.67;100.00;102604.78;2567904;30;138221;-38